createdAt,value
2022-11-10T00:05:22.585Z,14.50
2022-11-10T00:16:03.937Z,13.70
2022-11-10T00:26:26.579Z,13.10
2022-11-10T00:36:49.478Z,13.80
2022-11-10T00:47:12.898Z,14.50
2022-11-10T00:57:35.404Z,14.70
2022-11-10T01:07:59.934Z,12.50
2022-11-10T01:18:22.348Z,11.40
2022-11-10T01:28:45.754Z,12.50
2022-11-10T01:39:08.139Z,12.50
2022-11-10T01:49:32.761Z,13.00
2022-11-10T01:59:55.181Z,12.40
2022-11-10T02:10:19.612Z,10.50
2022-11-10T02:20:46.516Z,11.10
2022-11-10T02:31:10.093Z,10.40
2022-11-10T02:41:32.688Z,12.60
2022-11-10T02:51:55.427Z,13.70
2022-11-10T03:02:18.428Z,13.40
2022-11-10T03:12:40.817Z,12.80
2022-11-10T03:23:05.643Z,16.30
2022-11-10T03:33:27.951Z,14.20
2022-11-10T03:43:50.660Z,13.50
2022-11-10T03:54:12.942Z,14.30
2022-11-10T04:04:54.275Z,15.10
2022-11-10T04:15:36.000Z,15.40
2022-11-10T04:26:26.337Z,17.60
2022-11-10T04:36:49.139Z,15.40
2022-11-10T04:47:12.205Z,16.70
2022-11-10T04:57:35.151Z,15.40
2022-11-10T05:07:58.359Z,13.60
2022-11-10T05:18:21.100Z,14.50
2022-11-10T05:28:45.664Z,14.10
2022-11-10T05:39:07.890Z,14.00
2022-11-10T05:49:30.705Z,14.90
2022-11-10T05:59:53.573Z,14.00
2022-11-10T06:10:16.807Z,18.50
2022-11-10T06:20:39.814Z,17.30
2022-11-10T06:31:02.776Z,15.40
2022-11-10T06:41:25.727Z,19.10
2022-11-10T06:51:48.012Z,18.90
2022-11-10T07:02:15.010Z,20.80
2022-11-10T07:12:38.128Z,18.90
2022-11-10T07:23:02.358Z,16.30
2022-11-10T07:33:25.345Z,16.80
2022-11-10T07:43:48.687Z,16.00
2022-11-10T07:54:11.872Z,15.60
2022-11-10T08:04:34.610Z,18.30
2022-11-10T08:14:56.572Z,19.80
2022-11-10T08:25:18.959Z,17.20
2022-11-10T08:35:45.751Z,18.60
2022-11-10T08:46:08.040Z,18.40
2022-11-10T08:56:31.756Z,18.00
2022-11-10T09:06:58.052Z,21.10
2022-11-10T09:17:20.962Z,19.90
2022-11-10T09:27:43.659Z,18.60
2022-11-10T09:38:06.753Z,18.80
2022-11-10T09:48:37.697Z,22.50
2022-11-10T09:59:03.929Z,21.60
2022-11-10T10:09:52.271Z,20.00
2022-11-10T10:20:35.970Z,21.00
2022-11-10T10:31:18.462Z,25.10
2022-11-10T10:41:43.267Z,21.30
2022-11-10T10:52:25.436Z,26.20
2022-11-10T11:03:05.071Z,19.20
2022-11-10T11:13:28.840Z,19.90
2022-11-10T11:24:40.541Z,18.70
2022-11-10T11:35:15.887Z,18.40
2022-11-10T11:46:07.086Z,20.60
2022-11-10T11:56:39.088Z,19.90
2022-11-10T12:07:14.125Z,19.60
2022-11-10T12:17:49.141Z,20.00
2022-11-10T12:28:25.963Z,17.90
2022-11-10T12:39:03.929Z,20.90
2022-11-10T12:49:35.945Z,14.10
2022-11-10T13:00:03.138Z,8.20
2022-11-10T13:10:28.397Z,8.50
2022-11-10T13:20:53.339Z,10.80
2022-11-10T13:31:28.359Z,11.90
2022-11-10T13:42:01.088Z,10.40
2022-11-10T13:52:57.314Z,11.20
2022-11-10T14:03:48.443Z,11.50
2022-11-10T14:14:24.600Z,15.00
2022-11-10T14:25:26.793Z,13.50
2022-11-10T14:35:51.754Z,11.80
2022-11-10T14:46:15.940Z,9.80
2022-11-10T14:56:40.854Z,8.20
2022-11-10T15:07:04.439Z,9.80
2022-11-10T15:17:49.218Z,9.50
2022-11-10T15:28:27.997Z,9.30
2022-11-10T15:39:12.973Z,9.40
2022-11-10T15:49:37.457Z,12.30
2022-11-10T16:00:00.240Z,18.80
2022-11-10T16:10:25.391Z,15.30
2022-11-10T16:20:49.014Z,13.50
2022-11-10T16:31:12.731Z,15.50
2022-11-10T16:41:36.276Z,16.20
2022-11-10T16:52:00.330Z,11.60
2022-11-10T17:02:26.061Z,15.70
2022-11-10T17:12:50.587Z,32.00
2022-11-10T17:23:16.933Z,27.50
2022-11-10T17:33:41.932Z,25.40
2022-11-10T17:44:05.236Z,24.80
2022-11-10T17:54:27.980Z,26.30
2022-11-10T18:04:52.275Z,25.30
2022-11-10T18:15:19.470Z,29.60
2022-11-10T18:25:43.925Z,29.30
2022-11-10T18:36:07.611Z,30.50
2022-11-10T18:46:31.127Z,43.30
2022-11-10T18:56:55.781Z,32.00
2022-11-10T19:07:19.821Z,39.70
2022-11-10T19:17:43.840Z,49.50
2022-11-10T19:28:12.281Z,49.50
2022-11-10T19:38:36.477Z,43.60
2022-11-10T19:49:00.553Z,57.50
2022-11-10T19:59:24.060Z,60.80
2022-11-10T20:09:48.230Z,53.20
2022-11-10T20:20:12.623Z,58.00
2022-11-10T20:30:37.437Z,50.80
2022-11-10T20:41:16.248Z,47.40
2022-11-10T20:51:41.199Z,49.70
2022-11-10T21:02:07.288Z,56.90
2022-11-10T21:12:48.697Z,39.00
2022-11-10T21:23:11.296Z,43.40
2022-11-10T21:33:33.895Z,42.70
2022-11-10T21:43:56.902Z,39.50
2022-11-10T21:54:19.390Z,35.10
2022-11-10T22:04:42.106Z,37.80
2022-11-10T22:15:24.828Z,32.60
2022-11-10T22:25:47.859Z,33.50
2022-11-10T22:36:14.034Z,30.80
2022-11-10T22:46:38.652Z,34.20
2022-11-10T22:57:01.279Z,31.70
2022-11-10T23:07:23.773Z,29.30
2022-11-10T23:17:47.812Z,30.60
2022-11-10T23:28:10.188Z,29.90
2022-11-10T23:38:35.192Z,30.40
2022-11-10T23:48:57.747Z,27.90
2022-11-10T23:59:19.926Z,27.90
